sensor_id;sensor_type;location;lat;lon;timestamp;P1;durP1;ratioP1;P2;durP2;ratioP2
57337;SDS011;43173;50.980;18.204;2023-01-05T00:00:53;9.70;;;3.80;;
57337;SDS011;43173;50.980;18.204;2023-01-05T00:03:19;7.90;;;3.90;;
57337;SDS011;43173;50.980;18.204;2023-01-05T00:05:46;6.10;;;3.60;;
57337;SDS011;43173;50.980;18.204;2023-01-05T00:08:11;7.90;;;4.10;;
57337;SDS011;43173;50.980;18.204;2023-01-05T00:10:37;8.50;;;3.50;;
57337;SDS011;43173;50.980;18.204;2023-01-05T00:13:21;10.10;;;4.70;;
57337;SDS011;43173;50.980;18.204;2023-01-05T00:16:13;6.60;;;3.30;;
57337;SDS011;43173;50.980;18.204;2023-01-05T00:18:57;9.50;;;4.40;;
57337;SDS011;43173;50.980;18.204;2023-01-05T00:21:42;7.00;;;3.00;;
57337;SDS011;43173;50.980;18.204;2023-01-05T00:24:27;4.90;;;2.70;;
57337;SDS011;43173;50.980;18.204;2023-01-05T00:26:53;9.50;;;5.60;;
57337;SDS011;43173;50.980;18.204;2023-01-05T00:29:19;2.30;;;2.00;;
57337;SDS011;43173;50.980;18.204;2023-01-05T00:31:45;3.10;;;2.10;;
57337;SDS011;43173;50.980;18.204;2023-01-05T00:34:11;1.80;;;1.60;;
57337;SDS011;43173;50.980;18.204;2023-01-05T00:36:38;6.20;;;2.90;;
57337;SDS011;43173;50.980;18.204;2023-01-05T00:39:05;1.90;;;1.50;;
57337;SDS011;43173;50.980;18.204;2023-01-05T00:41:31;4.40;;;3.10;;
57337;SDS011;43173;50.980;18.204;2023-01-05T00:43:56;7.80;;;3.90;;
57337;SDS011;43173;50.980;18.204;2023-01-05T00:46:22;5.60;;;3.30;;
57337;SDS011;43173;50.980;18.204;2023-01-05T00:48:48;6.60;;;3.10;;
57337;SDS011;43173;50.980;18.204;2023-01-05T00:51:13;11.30;;;3.80;;
57337;SDS011;43173;50.980;18.204;2023-01-05T00:53:39;15.20;;;5.20;;
57337;SDS011;43173;50.980;18.204;2023-01-05T00:56:05;9.60;;;4.00;;
57337;SDS011;43173;50.980;18.204;2023-01-05T00:58:31;7.10;;;3.60;;
57337;SDS011;43173;50.980;18.204;2023-01-05T01:00:56;4.10;;;2.20;;
57337;SDS011;43173;50.980;18.204;2023-01-05T01:03:22;5.60;;;3.00;;
57337;SDS011;43173;50.980;18.204;2023-01-05T01:05:55;5.70;;;3.00;;
57337;SDS011;43173;50.980;18.204;2023-01-05T01:08:21;4.00;;;2.50;;
57337;SDS011;43173;50.980;18.204;2023-01-05T01:10:47;3.70;;;2.50;;
57337;SDS011;43173;50.980;18.204;2023-01-05T01:13:13;3.40;;;2.10;;
57337;SDS011;43173;50.980;18.204;2023-01-05T01:15:39;2.20;;;1.90;;
57337;SDS011;43173;50.980;18.204;2023-01-05T01:18:04;3.60;;;2.50;;
57337;SDS011;43173;50.980;18.204;2023-01-05T01:20:30;2.90;;;2.10;;
57337;SDS011;43173;50.980;18.204;2023-01-05T01:22:55;1.70;;;1.50;;
57337;SDS011;43173;50.980;18.204;2023-01-05T01:25:25;2.30;;;1.40;;
57337;SDS011;43173;50.980;18.204;2023-01-05T01:27:51;1.90;;;1.60;;
57337;SDS011;43173;50.980;18.204;2023-01-05T01:30:16;2.10;;;1.60;;
57337;SDS011;43173;50.980;18.204;2023-01-05T01:32:42;1.90;;;1.40;;
57337;SDS011;43173;50.980;18.204;2023-01-05T01:35:08;1.50;;;1.40;;
57337;SDS011;43173;50.980;18.204;2023-01-05T01:37:34;2.60;;;1.40;;
57337;SDS011;43173;50.980;18.204;2023-01-05T01:39:59;2.40;;;1.10;;
57337;SDS011;43173;50.980;18.204;2023-01-05T01:42:25;2.00;;;1.70;;
57337;SDS011;43173;50.980;18.204;2023-01-05T01:47:58;2.50;;;1.70;;
57337;SDS011;43173;50.980;18.204;2023-01-05T01:53:13;2.80;;;1.60;;
57337;SDS011;43173;50.980;18.204;2023-01-05T01:55:51;3.20;;;2.30;;
57337;SDS011;43173;50.980;18.204;2023-01-05T01:58:18;1.10;;;1.00;;
57337;SDS011;43173;50.980;18.204;2023-01-05T02:00:47;0.80;;;0.70;;
57337;SDS011;43173;50.980;18.204;2023-01-05T02:03:13;2.00;;;1.10;;
57337;SDS011;43173;50.980;18.204;2023-01-05T02:05:39;0.60;;;0.50;;
57337;SDS011;43173;50.980;18.204;2023-01-05T02:08:09;0.60;;;0.60;;
57337;SDS011;43173;50.980;18.204;2023-01-05T02:25:25;0.40;;;0.40;;
57337;SDS011;43173;50.980;18.204;2023-01-05T02:38:57;0.60;;;0.50;;
57337;SDS011;43173;50.980;18.204;2023-01-05T02:41:29;0.80;;;0.80;;
57337;SDS011;43173;50.980;18.204;2023-01-05T02:43:57;1.50;;;0.80;;
57337;SDS011;43173;50.980;18.204;2023-01-05T02:46:24;1.30;;;0.70;;
57337;SDS011;43173;50.980;18.204;2023-01-05T02:48:50;0.70;;;0.70;;
57337;SDS011;43173;50.980;18.204;2023-01-05T02:51:21;1.70;;;0.70;;
57337;SDS011;43173;50.980;18.204;2023-01-05T02:53:55;2.00;;;1.00;;
57337;SDS011;43173;50.980;18.204;2023-01-05T02:56:28;1.00;;;0.50;;
57337;SDS011;43173;50.980;18.204;2023-01-05T02:58:58;2.40;;;0.80;;
57337;SDS011;43173;50.980;18.204;2023-01-05T03:01:28;0.80;;;0.60;;
57337;SDS011;43173;50.980;18.204;2023-01-05T03:04:02;2.30;;;0.60;;
57337;SDS011;43173;50.980;18.204;2023-01-05T03:06:32;3.50;;;1.30;;
57337;SDS011;43173;50.980;18.204;2023-01-05T03:09:01;1.90;;;1.00;;
57337;SDS011;43173;50.980;18.204;2023-01-05T03:11:32;1.50;;;0.70;;
57337;SDS011;43173;50.980;18.204;2023-01-05T03:14:27;1.10;;;0.70;;
57337;SDS011;43173;50.980;18.204;2023-01-05T03:16:56;1.20;;;0.60;;
57337;SDS011;43173;50.980;18.204;2023-01-05T03:19:23;3.40;;;1.00;;
57337;SDS011;43173;50.980;18.204;2023-01-05T03:22:12;1.10;;;0.70;;
57337;SDS011;43173;50.980;18.204;2023-01-05T03:24:59;3.40;;;0.80;;
57337;SDS011;43173;50.980;18.204;2023-01-05T03:27:43;1.10;;;0.50;;
57337;SDS011;43173;50.980;18.204;2023-01-05T03:30:38;2.70;;;1.10;;
57337;SDS011;43173;50.980;18.204;2023-01-05T03:33:39;6.70;;;1.40;;
57337;SDS011;43173;50.980;18.204;2023-01-05T03:36:32;1.70;;;1.00;;
57337;SDS011;43173;50.980;18.204;2023-01-05T03:39:04;2.20;;;1.20;;
57337;SDS011;43173;50.980;18.204;2023-01-05T03:41:31;1.20;;;0.80;;
57337;SDS011;43173;50.980;18.204;2023-01-05T03:43:57;5.00;;;1.20;;
57337;SDS011;43173;50.980;18.204;2023-01-05T03:46:23;5.50;;;1.70;;
57337;SDS011;43173;50.980;18.204;2023-01-05T03:48:48;2.90;;;1.30;;
57337;SDS011;43173;50.980;18.204;2023-01-05T03:51:14;2.40;;;1.50;;
57337;SDS011;43173;50.980;18.204;2023-01-05T03:53:41;3.70;;;1.20;;
57337;SDS011;43173;50.980;18.204;2023-01-05T03:56:07;6.40;;;1.50;;
57337;SDS011;43173;50.980;18.204;2023-01-05T03:58:33;7.60;;;4.70;;
57337;SDS011;43173;50.980;18.204;2023-01-05T04:00:58;3.30;;;2.00;;
57337;SDS011;43173;50.980;18.204;2023-01-05T04:03:24;3.10;;;1.30;;
57337;SDS011;43173;50.980;18.204;2023-01-05T04:05:50;7.40;;;1.30;;
57337;SDS011;43173;50.980;18.204;2023-01-05T04:08:15;3.90;;;1.00;;
57337;SDS011;43173;50.980;18.204;2023-01-05T04:10:41;4.50;;;1.30;;
57337;SDS011;43173;50.980;18.204;2023-01-05T04:13:07;3.80;;;1.20;;
57337;SDS011;43173;50.980;18.204;2023-01-05T04:15:33;3.90;;;0.80;;
57337;SDS011;43173;50.980;18.204;2023-01-05T04:17:58;2.00;;;1.00;;
57337;SDS011;43173;50.980;18.204;2023-01-05T04:20:24;2.60;;;1.00;;
57337;SDS011;43173;50.980;18.204;2023-01-05T04:22:49;1.90;;;0.70;;
57337;SDS011;43173;50.980;18.204;2023-01-05T04:25:15;1.00;;;0.70;;
57337;SDS011;43173;50.980;18.204;2023-01-05T04:27:41;3.40;;;0.50;;
57337;SDS011;43173;50.980;18.204;2023-01-05T04:35:04;0.40;;;0.20;;
57337;SDS011;43173;50.980;18.204;2023-01-05T04:37:31;5.40;;;2.40;;
57337;SDS011;43173;50.980;18.204;2023-01-05T04:39:57;0.90;;;0.40;;
57337;SDS011;43173;50.980;18.204;2023-01-05T04:42:22;0.60;;;0.30;;
57337;SDS011;43173;50.980;18.204;2023-01-05T04:44:49;2.60;;;0.50;;
57337;SDS011;43173;50.980;18.204;2023-01-05T04:47:14;2.10;;;0.50;;
57337;SDS011;43173;50.980;18.204;2023-01-05T04:49:40;2.20;;;0.40;;
57337;SDS011;43173;50.980;18.204;2023-01-05T04:52:06;1.40;;;0.60;;
57337;SDS011;43173;50.980;18.204;2023-01-05T04:54:32;1.10;;;0.30;;
57337;SDS011;43173;50.980;18.204;2023-01-05T04:56:59;0.80;;;0.40;;
57337;SDS011;43173;50.980;18.204;2023-01-05T04:59:25;0.80;;;0.30;;
57337;SDS011;43173;50.980;18.204;2023-01-05T05:01:50;0.80;;;0.30;;
57337;SDS011;43173;50.980;18.204;2023-01-05T05:04:16;1.40;;;0.50;;
57337;SDS011;43173;50.980;18.204;2023-01-05T05:06:42;1.10;;;0.50;;
57337;SDS011;43173;50.980;18.204;2023-01-05T05:09:07;2.90;;;0.50;;
57337;SDS011;43173;50.980;18.204;2023-01-05T05:11:33;3.00;;;0.60;;
57337;SDS011;43173;50.980;18.204;2023-01-05T05:13:59;1.30;;;0.30;;
57337;SDS011;43173;50.980;18.204;2023-01-05T05:16:24;0.40;;;0.40;;
57337;SDS011;43173;50.980;18.204;2023-01-05T05:18:50;1.00;;;0.30;;
57337;SDS011;43173;50.980;18.204;2023-01-05T05:21:15;3.30;;;0.40;;
57337;SDS011;43173;50.980;18.204;2023-01-05T05:23:41;1.30;;;0.50;;
57337;SDS011;43173;50.980;18.204;2023-01-05T05:26:06;1.40;;;0.70;;
57337;SDS011;43173;50.980;18.204;2023-01-05T05:28:32;1.20;;;0.40;;
57337;SDS011;43173;50.980;18.204;2023-01-05T05:30:58;2.40;;;0.90;;
57337;SDS011;43173;50.980;18.204;2023-01-05T05:33:24;3.10;;;0.70;;
57337;SDS011;43173;50.980;18.204;2023-01-05T05:35:50;1.50;;;1.10;;
57337;SDS011;43173;50.980;18.204;2023-01-05T05:38:16;0.60;;;0.50;;
57337;SDS011;43173;50.980;18.204;2023-01-05T05:40:42;1.20;;;0.90;;
57337;SDS011;43173;50.980;18.204;2023-01-05T05:43:08;1.20;;;0.70;;
57337;SDS011;43173;50.980;18.204;2023-01-05T05:45:33;2.70;;;1.30;;
57337;SDS011;43173;50.980;18.204;2023-01-05T05:47:59;3.90;;;1.20;;
57337;SDS011;43173;50.980;18.204;2023-01-05T05:50:26;0.60;;;0.60;;
57337;SDS011;43173;50.980;18.204;2023-01-05T05:52:52;1.30;;;0.80;;
57337;SDS011;43173;50.980;18.204;2023-01-05T05:55:17;1.20;;;0.60;;
57337;SDS011;43173;50.980;18.204;2023-01-05T05:57:43;4.50;;;1.60;;
57337;SDS011;43173;50.980;18.204;2023-01-05T06:00:09;1.30;;;1.10;;
57337;SDS011;43173;50.980;18.204;2023-01-05T06:02:36;1.60;;;1.20;;
57337;SDS011;43173;50.980;18.204;2023-01-05T06:05:01;3.50;;;1.80;;
57337;SDS011;43173;50.980;18.204;2023-01-05T06:07:27;5.10;;;2.30;;
57337;SDS011;43173;50.980;18.204;2023-01-05T06:09:53;3.10;;;1.60;;
57337;SDS011;43173;50.980;18.204;2023-01-05T06:12:19;6.10;;;3.50;;
57337;SDS011;43173;50.980;18.204;2023-01-05T06:14:44;5.80;;;2.50;;
57337;SDS011;43173;50.980;18.204;2023-01-05T06:17:10;9.00;;;3.50;;
57337;SDS011;43173;50.980;18.204;2023-01-05T06:19:35;10.80;;;6.30;;
57337;SDS011;43173;50.980;18.204;2023-01-05T06:22:01;6.40;;;2.80;;
57337;SDS011;43173;50.980;18.204;2023-01-05T06:24:27;3.20;;;1.60;;
57337;SDS011;43173;50.980;18.204;2023-01-05T06:26:53;3.90;;;1.30;;
57337;SDS011;43173;50.980;18.204;2023-01-05T06:29:18;3.80;;;1.50;;
57337;SDS011;43173;50.980;18.204;2023-01-05T06:31:44;3.10;;;1.60;;
57337;SDS011;43173;50.980;18.204;2023-01-05T06:34:10;3.50;;;1.50;;
57337;SDS011;43173;50.980;18.204;2023-01-05T06:36:35;4.60;;;1.90;;
57337;SDS011;43173;50.980;18.204;2023-01-05T06:39:01;3.10;;;1.40;;
57337;SDS011;43173;50.980;18.204;2023-01-05T06:41:27;6.80;;;1.50;;
57337;SDS011;43173;50.980;18.204;2023-01-05T06:43:53;4.40;;;1.40;;
57337;SDS011;43173;50.980;18.204;2023-01-05T06:46:18;5.90;;;1.30;;
57337;SDS011;43173;50.980;18.204;2023-01-05T06:48:45;3.00;;;1.00;;
57337;SDS011;43173;50.980;18.204;2023-01-05T06:51:10;4.90;;;1.10;;
57337;SDS011;43173;50.980;18.204;2023-01-05T06:53:36;3.40;;;0.80;;
57337;SDS011;43173;50.980;18.204;2023-01-05T06:56:02;6.80;;;2.10;;
57337;SDS011;43173;50.980;18.204;2023-01-05T06:58:28;5.60;;;2.40;;
57337;SDS011;43173;50.980;18.204;2023-01-05T07:00:54;4.20;;;1.30;;
57337;SDS011;43173;50.980;18.204;2023-01-05T07:03:20;3.80;;;1.90;;
57337;SDS011;43173;50.980;18.204;2023-01-05T07:05:48;4.30;;;1.50;;
57337;SDS011;43173;50.980;18.204;2023-01-05T07:08:13;4.30;;;1.60;;
57337;SDS011;43173;50.980;18.204;2023-01-05T07:10:39;7.20;;;2.80;;
57337;SDS011;43173;50.980;18.204;2023-01-05T07:13:04;4.40;;;1.50;;
57337;SDS011;43173;50.980;18.204;2023-01-05T07:15:30;8.00;;;2.90;;
57337;SDS011;43173;50.980;18.204;2023-01-05T07:17:56;4.40;;;1.10;;
57337;SDS011;43173;50.980;18.204;2023-01-05T07:20:22;1.80;;;0.70;;
57337;SDS011;43173;50.980;18.204;2023-01-05T07:22:47;5.60;;;1.60;;
57337;SDS011;43173;50.980;18.204;2023-01-05T07:25:13;3.20;;;1.20;;
57337;SDS011;43173;50.980;18.204;2023-01-05T07:27:39;4.90;;;1.60;;
57337;SDS011;43173;50.980;18.204;2023-01-05T07:30:05;3.40;;;1.20;;
57337;SDS011;43173;50.980;18.204;2023-01-05T07:32:32;2.60;;;1.10;;
57337;SDS011;43173;50.980;18.204;2023-01-05T07:34:57;3.30;;;1.10;;
57337;SDS011;43173;50.980;18.204;2023-01-05T07:37:23;5.90;;;1.40;;
57337;SDS011;43173;50.980;18.204;2023-01-05T07:39:49;6.10;;;1.70;;
57337;SDS011;43173;50.980;18.204;2023-01-05T07:42:15;4.80;;;1.90;;
57337;SDS011;43173;50.980;18.204;2023-01-05T07:44:41;2.80;;;1.50;;
57337;SDS011;43173;50.980;18.204;2023-01-05T07:47:06;2.30;;;1.30;;
57337;SDS011;43173;50.980;18.204;2023-01-05T07:49:32;2.90;;;1.20;;
57337;SDS011;43173;50.980;18.204;2023-01-05T07:51:58;7.90;;;1.60;;
57337;SDS011;43173;50.980;18.204;2023-01-05T07:54:24;2.30;;;1.00;;
57337;SDS011;43173;50.980;18.204;2023-01-05T07:56:50;2.80;;;1.10;;
57337;SDS011;43173;50.980;18.204;2023-01-05T07:59:16;3.40;;;1.20;;
57337;SDS011;43173;50.980;18.204;2023-01-05T08:01:42;2.50;;;0.90;;
57337;SDS011;43173;50.980;18.204;2023-01-05T08:04:08;3.30;;;0.90;;
57337;SDS011;43173;50.980;18.204;2023-01-05T08:06:35;5.90;;;1.50;;
57337;SDS011;43173;50.980;18.204;2023-01-05T08:09:00;4.80;;;1.30;;
57337;SDS011;43173;50.980;18.204;2023-01-05T08:11:46;2.90;;;1.00;;
57337;SDS011;43173;50.980;18.204;2023-01-05T08:14:13;4.30;;;1.00;;
57337;SDS011;43173;50.980;18.204;2023-01-05T08:16:39;6.70;;;2.90;;
57337;SDS011;43173;50.980;18.204;2023-01-05T08:19:04;4.70;;;1.70;;
57337;SDS011;43173;50.980;18.204;2023-01-05T08:21:30;3.00;;;1.30;;
57337;SDS011;43173;50.980;18.204;2023-01-05T08:23:56;1.60;;;1.40;;
57337;SDS011;43173;50.980;18.204;2023-01-05T08:26:24;5.50;;;1.60;;
57337;SDS011;43173;50.980;18.204;2023-01-05T08:28:50;6.10;;;1.60;;
57337;SDS011;43173;50.980;18.204;2023-01-05T08:31:24;5.90;;;0.90;;
57337;SDS011;43173;50.980;18.204;2023-01-05T08:33:55;3.40;;;1.60;;
57337;SDS011;43173;50.980;18.204;2023-01-05T08:36:24;4.30;;;1.50;;
57337;SDS011;43173;50.980;18.204;2023-01-05T08:38:51;3.50;;;1.30;;
57337;SDS011;43173;50.980;18.204;2023-01-05T08:41:19;5.00;;;1.90;;
57337;SDS011;43173;50.980;18.204;2023-01-05T08:43:50;5.30;;;2.10;;
57337;SDS011;43173;50.980;18.204;2023-01-05T08:46:18;6.50;;;2.10;;
57337;SDS011;43173;50.980;18.204;2023-01-05T08:48:48;5.80;;;1.40;;
57337;SDS011;43173;50.980;18.204;2023-01-05T08:51:15;2.60;;;1.30;;
57337;SDS011;43173;50.980;18.204;2023-01-05T08:53:41;6.50;;;1.70;;
57337;SDS011;43173;50.980;18.204;2023-01-05T08:56:06;4.00;;;1.50;;
57337;SDS011;43173;50.980;18.204;2023-01-05T08:58:34;4.20;;;1.60;;
57337;SDS011;43173;50.980;18.204;2023-01-05T09:01:10;3.70;;;1.40;;
57337;SDS011;43173;50.980;18.204;2023-01-05T09:03:37;6.20;;;1.90;;
57337;SDS011;43173;50.980;18.204;2023-01-05T09:06:06;7.70;;;2.30;;
57337;SDS011;43173;50.980;18.204;2023-01-05T09:08:33;4.20;;;1.90;;
57337;SDS011;43173;50.980;18.204;2023-01-05T09:13:46;7.60;;;1.50;;
57337;SDS011;43173;50.980;18.204;2023-01-05T09:16:14;11.30;;;5.50;;
57337;SDS011;43173;50.980;18.204;2023-01-05T09:18:43;5.40;;;2.10;;
57337;SDS011;43173;50.980;18.204;2023-01-05T09:21:09;6.70;;;3.00;;
57337;SDS011;43173;50.980;18.204;2023-01-05T09:23:36;5.40;;;2.00;;
57337;SDS011;43173;50.980;18.204;2023-01-05T09:26:03;6.40;;;2.30;;
57337;SDS011;43173;50.980;18.204;2023-01-05T09:31:34;6.40;;;1.60;;
57337;SDS011;43173;50.980;18.204;2023-01-05T09:33:52;4.20;;;1.70;;
57337;SDS011;43173;50.980;18.204;2023-01-05T09:36:18;4.40;;;1.50;;
57337;SDS011;43173;50.980;18.204;2023-01-05T09:38:48;11.30;;;1.80;;
57337;SDS011;43173;50.980;18.204;2023-01-05T09:43:48;7.30;;;1.60;;
57337;SDS011;43173;50.980;18.204;2023-01-05T09:46:16;2.30;;;1.10;;
57337;SDS011;43173;50.980;18.204;2023-01-05T09:48:46;2.70;;;1.30;;
57337;SDS011;43173;50.980;18.204;2023-01-05T09:51:15;4.90;;;1.80;;
57337;SDS011;43173;50.980;18.204;2023-01-05T09:53:40;3.00;;;1.40;;
57337;SDS011;43173;50.980;18.204;2023-01-05T09:56:11;9.20;;;2.50;;
57337;SDS011;43173;50.980;18.204;2023-01-05T09:58:44;4.00;;;1.40;;
57337;SDS011;43173;50.980;18.204;2023-01-05T10:01:19;5.70;;;1.90;;
57337;SDS011;43173;50.980;18.204;2023-01-05T10:06:33;5.80;;;2.10;;
57337;SDS011;43173;50.980;18.204;2023-01-05T10:09:02;11.50;;;2.50;;
57337;SDS011;43173;50.980;18.204;2023-01-05T10:14:23;4.10;;;1.60;;
57337;SDS011;43173;50.980;18.204;2023-01-05T10:16:53;5.00;;;2.30;;
57337;SDS011;43173;50.980;18.204;2023-01-05T10:19:19;5.10;;;2.00;;
57337;SDS011;43173;50.980;18.204;2023-01-05T10:21:49;6.30;;;2.20;;
57337;SDS011;43173;50.980;18.204;2023-01-05T10:27:07;5.60;;;1.70;;
57337;SDS011;43173;50.980;18.204;2023-01-05T10:29:42;6.10;;;1.40;;
57337;SDS011;43173;50.980;18.204;2023-01-05T10:38:02;5.20;;;1.70;;
57337;SDS011;43173;50.980;18.204;2023-01-05T10:41:20;5.10;;;1.50;;
57337;SDS011;43173;50.980;18.204;2023-01-05T10:46:40;5.30;;;0.80;;
57337;SDS011;43173;50.980;18.204;2023-01-05T10:49:07;4.40;;;1.30;;
57337;SDS011;43173;50.980;18.204;2023-01-05T10:51:33;3.00;;;1.20;;
57337;SDS011;43173;50.980;18.204;2023-01-05T10:54:01;4.90;;;1.20;;
57337;SDS011;43173;50.980;18.204;2023-01-05T10:56:27;14.90;;;1.50;;
57337;SDS011;43173;50.980;18.204;2023-01-05T11:01:42;3.40;;;1.20;;
57337;SDS011;43173;50.980;18.204;2023-01-05T11:07:01;4.00;;;1.30;;
57337;SDS011;43173;50.980;18.204;2023-01-05T11:09:28;7.90;;;1.50;;
57337;SDS011;43173;50.980;18.204;2023-01-05T11:14:26;5.90;;;1.20;;
57337;SDS011;43173;50.980;18.204;2023-01-05T11:16:54;3.70;;;1.40;;
57337;SDS011;43173;50.980;18.204;2023-01-05T11:19:28;8.30;;;1.40;;
57337;SDS011;43173;50.980;18.204;2023-01-05T11:21:56;4.70;;;1.30;;
57337;SDS011;43173;50.980;18.204;2023-01-05T11:24:29;4.50;;;1.40;;
57337;SDS011;43173;50.980;18.204;2023-01-05T11:27:00;4.40;;;1.40;;
57337;SDS011;43173;50.980;18.204;2023-01-05T11:29:27;2.00;;;1.10;;
57337;SDS011;43173;50.980;18.204;2023-01-05T11:31:57;3.30;;;1.00;;
57337;SDS011;43173;50.980;18.204;2023-01-05T11:40:00;1.60;;;0.80;;
57337;SDS011;43173;50.980;18.204;2023-01-05T11:42:29;1.20;;;0.60;;
57337;SDS011;43173;50.980;18.204;2023-01-05T11:44:58;3.50;;;0.70;;
57337;SDS011;43173;50.980;18.204;2023-01-05T11:47:27;1.30;;;0.40;;
57337;SDS011;43173;50.980;18.204;2023-01-05T11:50:05;0.80;;;0.40;;
57337;SDS011;43173;50.980;18.204;2023-01-05T12:21:24;3.90;;;0.50;;
57337;SDS011;43173;50.980;18.204;2023-01-05T12:53:06;1.30;;;0.50;;
57337;SDS011;43173;50.980;18.204;2023-01-05T12:55:42;1.90;;;0.60;;
57337;SDS011;43173;50.980;18.204;2023-01-05T12:58:16;0.40;;;0.40;;
57337;SDS011;43173;50.980;18.204;2023-01-05T13:00:43;0.80;;;0.50;;
57337;SDS011;43173;50.980;18.204;2023-01-05T13:03:33;1.10;;;0.60;;
57337;SDS011;43173;50.980;18.204;2023-01-05T13:06:08;0.40;;;0.30;;
57337;SDS011;43173;50.980;18.204;2023-01-05T13:09:02;1.90;;;0.60;;
57337;SDS011;43173;50.980;18.204;2023-01-05T13:16:38;1.80;;;0.70;;
57337;SDS011;43173;50.980;18.204;2023-01-05T13:22:22;3.20;;;2.00;;
57337;SDS011;43173;50.980;18.204;2023-01-05T13:24:50;3.10;;;1.50;;
57337;SDS011;43173;50.980;18.204;2023-01-05T13:27:19;3.20;;;1.30;;
57337;SDS011;43173;50.980;18.204;2023-01-05T13:29:46;2.70;;;0.90;;
57337;SDS011;43173;50.980;18.204;2023-01-05T13:32:23;2.60;;;1.00;;
57337;SDS011;43173;50.980;18.204;2023-01-05T13:55:18;2.60;;;1.70;;
57337;SDS011;43173;50.980;18.204;2023-01-05T13:57:46;2.70;;;1.00;;
57337;SDS011;43173;50.980;18.204;2023-01-05T14:03:45;5.80;;;2.20;;
57337;SDS011;43173;50.980;18.204;2023-01-05T14:05:55;3.90;;;1.30;;
57337;SDS011;43173;50.980;18.204;2023-01-05T14:13:43;3.90;;;1.60;;
57337;SDS011;43173;50.980;18.204;2023-01-05T14:27:20;5.50;;;1.30;;
57337;SDS011;43173;50.980;18.204;2023-01-05T14:43:18;0.40;;;0.40;;
57337;SDS011;43173;50.980;18.204;2023-01-05T14:51:50;4.00;;;1.90;;
57337;SDS011;43173;50.980;18.204;2023-01-05T14:54:54;5.20;;;1.40;;
57337;SDS011;43173;50.980;18.204;2023-01-05T15:02:43;2.20;;;1.40;;
57337;SDS011;43173;50.980;18.204;2023-01-05T15:05:22;2.10;;;1.10;;
57337;SDS011;43173;50.980;18.204;2023-01-05T15:07:58;4.40;;;1.60;;
57337;SDS011;43173;50.980;18.204;2023-01-05T15:13:26;2.30;;;1.00;;
57337;SDS011;43173;50.980;18.204;2023-01-05T15:16:04;1.60;;;0.90;;
57337;SDS011;43173;50.980;18.204;2023-01-05T15:24:29;6.30;;;1.30;;
57337;SDS011;43173;50.980;18.204;2023-01-05T15:32:42;4.70;;;1.80;;
57337;SDS011;43173;50.980;18.204;2023-01-05T15:35:28;4.00;;;1.30;;
57337;SDS011;43173;50.980;18.204;2023-01-05T15:37:57;3.50;;;1.20;;
57337;SDS011;43173;50.980;18.204;2023-01-05T15:40:37;3.70;;;1.10;;
57337;SDS011;43173;50.980;18.204;2023-01-05T15:43:03;3.80;;;1.20;;
57337;SDS011;43173;50.980;18.204;2023-01-05T15:45:30;2.00;;;1.10;;
57337;SDS011;43173;50.980;18.204;2023-01-05T15:47:59;3.30;;;0.90;;
57337;SDS011;43173;50.980;18.204;2023-01-05T15:50:32;0.90;;;0.50;;
57337;SDS011;43173;50.980;18.204;2023-01-05T15:53:03;1.10;;;0.60;;
57337;SDS011;43173;50.980;18.204;2023-01-05T15:55:29;3.00;;;1.20;;
57337;SDS011;43173;50.980;18.204;2023-01-05T16:00:27;3.20;;;1.00;;
57337;SDS011;43173;50.980;18.204;2023-01-05T16:02:54;3.60;;;1.10;;
57337;SDS011;43173;50.980;18.204;2023-01-05T16:05:21;3.90;;;0.90;;
57337;SDS011;43173;50.980;18.204;2023-01-05T16:13:02;2.50;;;0.80;;
57337;SDS011;43173;50.980;18.204;2023-01-05T16:15:32;2.80;;;1.40;;
57337;SDS011;43173;50.980;18.204;2023-01-05T16:17:59;3.30;;;1.40;;
57337;SDS011;43173;50.980;18.204;2023-01-05T16:20:25;4.80;;;1.00;;
57337;SDS011;43173;50.980;18.204;2023-01-05T16:25:47;2.80;;;0.90;;
57337;SDS011;43173;50.980;18.204;2023-01-05T16:28:15;4.60;;;1.20;;
57337;SDS011;43173;50.980;18.204;2023-01-05T16:30:43;5.70;;;1.50;;
57337;SDS011;43173;50.980;18.204;2023-01-05T16:38:39;2.10;;;1.10;;
57337;SDS011;43173;50.980;18.204;2023-01-05T16:46:22;4.60;;;1.20;;
57337;SDS011;43173;50.980;18.204;2023-01-05T16:52:02;3.20;;;1.10;;
57337;SDS011;43173;50.980;18.204;2023-01-05T16:54:34;4.40;;;1.40;;
57337;SDS011;43173;50.980;18.204;2023-01-05T17:03:00;3.50;;;1.30;;
57337;SDS011;43173;50.980;18.204;2023-01-05T17:05:30;1.70;;;0.90;;
57337;SDS011;43173;50.980;18.204;2023-01-05T17:10:42;1.40;;;0.70;;
57337;SDS011;43173;50.980;18.204;2023-01-05T17:13:13;3.80;;;1.20;;
57337;SDS011;43173;50.980;18.204;2023-01-05T17:15:42;3.90;;;1.20;;
57337;SDS011;43173;50.980;18.204;2023-01-05T17:20:54;5.40;;;1.30;;
57337;SDS011;43173;50.980;18.204;2023-01-05T17:26:13;3.90;;;1.20;;
57337;SDS011;43173;50.980;18.204;2023-01-05T17:28:45;4.60;;;1.40;;
57337;SDS011;43173;50.980;18.204;2023-01-05T17:31:10;9.20;;;1.60;;
57337;SDS011;43173;50.980;18.204;2023-01-05T17:33:36;2.50;;;1.10;;
57337;SDS011;43173;50.980;18.204;2023-01-05T17:36:02;4.50;;;1.80;;
57337;SDS011;43173;50.980;18.204;2023-01-05T17:38:28;4.00;;;1.20;;
57337;SDS011;43173;50.980;18.204;2023-01-05T17:40:54;4.50;;;1.40;;
57337;SDS011;43173;50.980;18.204;2023-01-05T17:43:19;3.60;;;1.10;;
57337;SDS011;43173;50.980;18.204;2023-01-05T17:45:45;4.60;;;1.30;;
57337;SDS011;43173;50.980;18.204;2023-01-05T17:48:11;2.70;;;1.30;;
57337;SDS011;43173;50.980;18.204;2023-01-05T17:50:40;2.50;;;1.20;;
57337;SDS011;43173;50.980;18.204;2023-01-05T17:53:06;4.10;;;1.40;;
57337;SDS011;43173;50.980;18.204;2023-01-05T17:55:32;4.10;;;1.30;;
57337;SDS011;43173;50.980;18.204;2023-01-05T17:57:58;6.20;;;1.40;;
57337;SDS011;43173;50.980;18.204;2023-01-05T18:00:25;5.20;;;1.60;;
57337;SDS011;43173;50.980;18.204;2023-01-05T18:02:52;3.70;;;1.40;;
57337;SDS011;43173;50.980;18.204;2023-01-05T18:05:19;2.80;;;1.30;;
57337;SDS011;43173;50.980;18.204;2023-01-05T18:07:45;2.70;;;1.10;;
57337;SDS011;43173;50.980;18.204;2023-01-05T18:10:13;5.20;;;1.70;;
57337;SDS011;43173;50.980;18.204;2023-01-05T18:12:43;4.00;;;1.50;;
57337;SDS011;43173;50.980;18.204;2023-01-05T18:15:09;4.00;;;1.50;;
57337;SDS011;43173;50.980;18.204;2023-01-05T18:17:35;4.50;;;1.80;;
57337;SDS011;43173;50.980;18.204;2023-01-05T18:20:01;7.60;;;1.90;;
57337;SDS011;43173;50.980;18.204;2023-01-05T18:22:28;5.00;;;1.80;;
57337;SDS011;43173;50.980;18.204;2023-01-05T18:24:54;1.80;;;1.30;;
57337;SDS011;43173;50.980;18.204;2023-01-05T18:27:19;4.00;;;1.50;;
57337;SDS011;43173;50.980;18.204;2023-01-05T18:29:45;4.70;;;1.40;;
57337;SDS011;43173;50.980;18.204;2023-01-05T18:32:11;7.20;;;1.60;;
57337;SDS011;43173;50.980;18.204;2023-01-05T18:34:36;4.40;;;1.50;;
57337;SDS011;43173;50.980;18.204;2023-01-05T18:37:02;2.90;;;1.40;;
57337;SDS011;43173;50.980;18.204;2023-01-05T18:39:28;3.60;;;1.40;;
57337;SDS011;43173;50.980;18.204;2023-01-05T18:41:54;4.00;;;1.50;;
57337;SDS011;43173;50.980;18.204;2023-01-05T18:44:20;3.90;;;1.40;;
57337;SDS011;43173;50.980;18.204;2023-01-05T18:46:46;3.40;;;1.50;;
57337;SDS011;43173;50.980;18.204;2023-01-05T18:49:11;4.60;;;1.50;;
57337;SDS011;43173;50.980;18.204;2023-01-05T18:51:38;5.10;;;1.70;;
57337;SDS011;43173;50.980;18.204;2023-01-05T18:54:04;6.30;;;1.50;;
57337;SDS011;43173;50.980;18.204;2023-01-05T18:56:30;5.50;;;1.50;;
57337;SDS011;43173;50.980;18.204;2023-01-05T18:58:56;5.60;;;1.90;;
57337;SDS011;43173;50.980;18.204;2023-01-05T19:01:22;2.70;;;1.70;;